Nagpur, India

11:34 AM IST on July 02, 2015 (GMT +0530)
Nagpur | | Change Station
CLOSE
Current Station
Airport
Location: Nagpur Sonegaon,
Elevation: 1017 ft
Nearby Weather Stations

Elev 1017 ft 21.09 °N, 79.06 °E | Updated 24 minutes ago

Partly Cloudy
Partly Cloudy
90 °F
Feels Like 102 °F
N
12
Wind Variable Wind from WNW

Today
High -- | Low -- °F
--% Chance of Precip.
Yesterday
High -- | Low -- °F
Precip. -- in
5:35 AM 6:59 PM
Full, 100% visible
Pressure 29.83 in
Visibility 3.7 miles
Clouds Few 2000 ft
Scattered Clouds 2500 ft
Few 3000 ft
Heat Index 102 °F
Dew Point 77 °F
Humidity 66%
Rainfall 0.00 in
Snow Depth Not available.
UV 17 out of 12
Pollen Not available.
Air Quality Not available.
Flu Activity Not available.
METAR VANP 020540Z 29010KT 6000 FEW020 SCT025 FEW030TCU 32/25 Q1010 NOSIG

More Conditions Fewer Conditions

Pressure 29.83 in
Visibility 3.7 miles
Clouds Few 2000 ft
Scattered Clouds 2500 ft
Few 3000 ft
Heat Index 102 °F
Dew Point 77 °F
Humidity 66%
Rainfall 0.00 in
Snow Depth Not available.
UV 17 out of 12
Pollen Not available.
Air Quality Not available.
Flu Activity Not available.
METAR VANP 020540Z 29010KT 6000 FEW020 SCT025 FEW030TCU 32/25 Q1010 NOSIG

More Conditions Fewer Conditions

10-Day Weather Forecast

×

Almanac

Astronomy

Jul. 02, 2015 Rise Set
Actual Time
Civil Twilight
Nautical Twilight
Astronomical Twilight
Moon
Length of Visible Light
Length of Day
Tomorrow will be .
, % of the Moon is Illuminated

Today's Extremes

Country Highs Country Lows

Community

WunderPhotos

Upload Photos

1,834,422 photos uploaded!

WunderBlogs® & News

Nearby

Air Quality

  Air Quality AQ Index Pollutant
Not available.

Snow Depth

Station Depth Elevation

Earthquake Activity

City Distance Mag. Time & Date
Minimum magnitude displayed is 2.5.

Coastal Water Temperatures

Place Temperature

Stations

Nearby Weather Stations

Station Location Temp. Windchill Dew Point Humidity Wind Precip. Elev Updated Type